sensor_id;sensor_type;location;lat;lon;timestamp;pressure;altitude;pressure_sealevel;temperature;humidity
12247;BME280;6186;52.022;4.692;2023-02-19T00:02:20;101905.66;;;10.79;100.00
12247;BME280;6186;52.022;4.692;2023-02-19T00:04:45;101911.84;;;10.77;100.00
12247;BME280;6186;52.022;4.692;2023-02-19T00:07:10;101916.25;;;10.76;100.00
12247;BME280;6186;52.022;4.692;2023-02-19T00:09:35;101915.38;;;10.74;100.00
12247;BME280;6186;52.022;4.692;2023-02-19T00:12:01;101921.53;;;10.73;100.00
12247;BME280;6186;52.022;4.692;2023-02-19T00:14:26;101921.53;;;10.73;100.00
12247;BME280;6186;52.022;4.692;2023-02-19T00:16:51;101924.16;;;10.72;100.00
12247;BME280;6186;52.022;4.692;2023-02-19T00:19:19;101920.66;;;10.71;100.00
12247;BME280;6186;52.022;4.692;2023-02-19T00:21:44;101925.91;;;10.71;100.00
12247;BME280;6186;52.022;4.692;2023-02-19T00:24:11;101914.53;;;10.68;100.00
12247;BME280;6186;52.022;4.692;2023-02-19T00:26:38;101925.91;;;10.74;100.00
12247;BME280;6186;52.022;4.692;2023-02-19T00:29:05;101918.00;;;10.74;100.00
12247;BME280;6186;52.022;4.692;2023-02-19T00:31:32;101919.75;;;10.75;100.00
12247;BME280;6186;52.022;4.692;2023-02-19T00:34:00;101921.50;;;10.76;100.00
12247;BME280;6186;52.022;4.692;2023-02-19T00:36:26;101921.50;;;10.76;100.00
12247;BME280;6186;52.022;4.692;2023-02-19T00:38:52;101924.09;;;10.79;100.00
12247;BME280;6186;52.022;4.692;2023-02-19T00:41:20;101927.63;;;10.80;100.00
12247;BME280;6186;52.022;4.692;2023-02-19T00:43:55;101932.88;;;10.81;100.00
12247;BME280;6186;52.022;4.692;2023-02-19T00:46:23;101934.63;;;10.82;100.00
12247;BME280;6186;52.022;4.692;2023-02-19T00:48:49;101933.75;;;10.82;100.00
12247;BME280;6186;52.022;4.692;2023-02-19T00:51:17;101933.78;;;10.80;100.00
12247;BME280;6186;52.022;4.692;2023-02-19T00:53:42;101937.25;;;10.82;100.00
12247;BME280;6186;52.022;4.692;2023-02-19T00:56:08;101930.22;;;10.81;100.00
12247;BME280;6186;52.022;4.692;2023-02-19T00:58:33;101941.63;;;10.85;100.00
12247;BME280;6186;52.022;4.692;2023-02-19T01:00:59;101927.56;;;10.83;100.00
12247;BME280;6186;52.022;4.692;2023-02-19T01:03:25;101951.25;;;10.87;100.00
12247;BME280;6186;52.022;4.692;2023-02-19T01:05:52;101950.34;;;10.88;100.00
12247;BME280;6186;52.022;4.692;2023-02-19T01:08:17;101950.34;;;10.88;100.00
12247;BME280;6186;52.022;4.692;2023-02-19T01:10:43;101944.22;;;10.86;100.00
12247;BME280;6186;52.022;4.692;2023-02-19T01:13:08;101950.34;;;10.88;100.00
12247;BME280;6186;52.022;4.692;2023-02-19T01:15:34;101949.50;;;10.88;100.00
12247;BME280;6186;52.022;4.692;2023-02-19T01:17:59;101953.88;;;10.89;100.00
12247;BME280;6186;52.022;4.692;2023-02-19T01:20:25;101943.34;;;10.87;100.00
12247;BME280;6186;52.022;4.692;2023-02-19T01:22:53;101948.59;;;10.90;100.00
12247;BME280;6186;52.022;4.692;2023-02-19T01:25:19;101963.53;;;10.91;100.00
12247;BME280;6186;52.022;4.692;2023-02-19T01:27:44;101954.72;;;10.92;100.00
12247;BME280;6186;52.022;4.692;2023-02-19T01:30:10;101962.63;;;10.94;100.00
12247;BME280;6186;52.022;4.692;2023-02-19T01:32:36;101963.47;;;10.94;100.00
12247;BME280;6186;52.022;4.692;2023-02-19T01:35:01;101945.09;;;10.90;100.00
12247;BME280;6186;52.022;4.692;2023-02-19T01:37:27;101954.72;;;10.95;100.00
12247;BME280;6186;52.022;4.692;2023-02-19T01:39:52;101954.72;;;10.95;100.00
12247;BME280;6186;52.022;4.692;2023-02-19T01:42:17;101952.06;;;10.95;100.00
12247;BME280;6186;52.022;4.692;2023-02-19T01:47:12;101939.78;;;10.93;100.00
12247;BME280;6186;52.022;4.692;2023-02-19T01:49:45;101952.94;;;10.96;100.00
12247;BME280;6186;52.022;4.692;2023-02-19T01:52:28;101961.72;;;10.96;100.00
12247;BME280;6186;52.022;4.692;2023-02-19T01:54:57;101955.56;;;10.97;100.00
12247;BME280;6186;52.022;4.692;2023-02-19T01:57:31;101956.47;;;10.95;100.00
12247;BME280;6186;52.022;4.692;2023-02-19T02:00:02;101961.69;;;10.99;100.00
12247;BME280;6186;52.022;4.692;2023-02-19T02:02:28;101958.22;;;10.97;100.00
12247;BME280;6186;52.022;4.692;2023-02-19T02:04:57;101967.84;;;10.98;100.00
12247;BME280;6186;52.022;4.692;2023-02-19T02:07:24;101968.75;;;10.97;100.00
12247;BME280;6186;52.022;4.692;2023-02-19T02:10:08;101966.97;;;10.96;100.00
12247;BME280;6186;52.022;4.692;2023-02-19T02:12:50;101966.09;;;10.96;100.00
12247;BME280;6186;52.022;4.692;2023-02-19T02:15:16;101961.75;;;10.93;100.00
12247;BME280;6186;52.022;4.692;2023-02-19T02:28:51;101981.97;;;10.88;100.00
12247;BME280;6186;52.022;4.692;2023-02-19T02:31:38;101967.09;;;10.84;100.00
12247;BME280;6186;52.022;4.692;2023-02-19T02:34:29;101969.69;;;10.89;100.00
12247;BME280;6186;52.022;4.692;2023-02-19T02:36:59;101973.19;;;10.89;100.00
12247;BME280;6186;52.022;4.692;2023-02-19T02:39:26;101982.81;;;10.90;100.00
12247;BME280;6186;52.022;4.692;2023-02-19T02:41:57;101975.81;;;10.91;100.00
12247;BME280;6186;52.022;4.692;2023-02-19T02:44:42;101982.84;;;10.92;100.00
12247;BME280;6186;52.022;4.692;2023-02-19T02:47:29;101995.13;;;10.91;100.00
12247;BME280;6186;52.022;4.692;2023-02-19T02:50:08;101992.50;;;10.91;100.00
12247;BME280;6186;52.022;4.692;2023-02-19T02:52:37;101988.97;;;10.91;100.00
12247;BME280;6186;52.022;4.692;2023-02-19T02:55:25;101986.31;;;10.92;100.00
12247;BME280;6186;52.022;4.692;2023-02-19T02:57:54;102003.03;;;10.91;100.00
12247;BME280;6186;52.022;4.692;2023-02-19T03:00:21;101996.91;;;10.89;100.00
12247;BME280;6186;52.022;4.692;2023-02-19T03:02:48;101976.78;;;10.82;100.00
12247;BME280;6186;52.022;4.692;2023-02-19T03:05:19;102007.44;;;10.86;100.00
12247;BME280;6186;52.022;4.692;2023-02-19T03:13:14;102011.88;;;10.81;100.00
12247;BME280;6186;52.022;4.692;2023-02-19T03:16:04;102013.63;;;10.85;100.00
12247;BME280;6186;52.022;4.692;2023-02-19T03:18:53;102028.53;;;10.85;100.00
12247;BME280;6186;52.022;4.692;2023-02-19T03:21:39;102015.41;;;10.82;100.00
12247;BME280;6186;52.022;4.692;2023-02-19T03:24:07;102018.91;;;10.81;100.00
12247;BME280;6186;52.022;4.692;2023-02-19T03:26:55;102022.44;;;10.80;100.00
12247;BME280;6186;52.022;4.692;2023-02-19T03:29:22;102034.72;;;10.79;100.00
12247;BME280;6186;52.022;4.692;2023-02-19T03:32:03;102037.34;;;10.79;100.00
12247;BME280;6186;52.022;4.692;2023-02-19T03:34:34;102035.59;;;10.80;100.00
12247;BME280;6186;52.022;4.692;2023-02-19T03:37:08;102034.75;;;10.76;100.00
12247;BME280;6186;52.022;4.692;2023-02-19T03:39:34;102036.47;;;10.79;100.00
12247;BME280;6186;52.022;4.692;2023-02-19T03:42:17;102040.88;;;10.78;100.00
12247;BME280;6186;52.022;4.692;2023-02-19T03:45:01;102039.13;;;10.77;100.00
12247;BME280;6186;52.022;4.692;2023-02-19T03:47:48;102052.28;;;10.77;100.00
12247;BME280;6186;52.022;4.692;2023-02-19T03:50:31;102048.78;;;10.75;100.00
12247;BME280;6186;52.022;4.692;2023-02-19T03:55:50;102060.22;;;10.71;100.00
12247;BME280;6186;52.022;4.692;2023-02-19T03:58:25;102050.59;;;10.70;100.00
12247;BME280;6186;52.022;4.692;2023-02-19T04:00:57;102060.22;;;10.71;100.00
12247;BME280;6186;52.022;4.692;2023-02-19T04:03:34;102061.09;;;10.72;100.00
12247;BME280;6186;52.022;4.692;2023-02-19T04:06:04;102057.59;;;10.71;100.00
12247;BME280;6186;52.022;4.692;2023-02-19T04:08:35;102062.00;;;10.71;100.00
12247;BME280;6186;52.022;4.692;2023-02-19T04:11:02;102056.75;;;10.69;100.00
12247;BME280;6186;52.022;4.692;2023-02-19T04:13:43;102068.16;;;10.67;100.00
12247;BME280;6186;52.022;4.692;2023-02-19T04:16:15;102069.94;;;10.65;100.00
12247;BME280;6186;52.022;4.692;2023-02-19T04:18:43;102070.81;;;10.62;100.00
12247;BME280;6186;52.022;4.692;2023-02-19T04:21:12;102077.00;;;10.60;100.00
12247;BME280;6186;52.022;4.692;2023-02-19T04:23:42;102070.84;;;10.59;100.00
12247;BME280;6186;52.022;4.692;2023-02-19T04:26:09;102084.91;;;10.60;100.00
12247;BME280;6186;52.022;4.692;2023-02-19T04:28:37;102075.25;;;10.54;100.00
12247;BME280;6186;52.022;4.692;2023-02-19T04:31:02;102077.91;;;10.56;100.00
12247;BME280;6186;52.022;4.692;2023-02-19T04:33:28;102091.06;;;10.56;100.00
12247;BME280;6186;52.022;4.692;2023-02-19T04:35:53;102097.19;;;10.56;100.00
12247;BME280;6186;52.022;4.692;2023-02-19T04:38:18;102103.34;;;10.55;100.00
12247;BME280;6186;52.022;4.692;2023-02-19T04:40:44;102108.59;;;10.57;100.00
12247;BME280;6186;52.022;4.692;2023-02-19T04:43:09;102118.25;;;10.56;100.00
12247;BME280;6186;52.022;4.692;2023-02-19T04:45:36;102124.38;;;10.58;100.00
12247;BME280;6186;52.022;4.692;2023-02-19T04:48:02;102116.47;;;10.58;100.00
12247;BME280;6186;52.022;4.692;2023-02-19T04:50:27;102113.91;;;10.52;100.00
12247;BME280;6186;52.022;4.692;2023-02-19T04:52:53;102128.78;;;10.55;100.00
12247;BME280;6186;52.022;4.692;2023-02-19T04:55:18;102129.66;;;10.55;100.00
12247;BME280;6186;52.022;4.692;2023-02-19T04:57:43;102127.03;;;10.55;100.00
12247;BME280;6186;52.022;4.692;2023-02-19T05:00:09;102135.81;;;10.54;100.00
12247;BME280;6186;52.022;4.692;2023-02-19T05:02:35;102136.69;;;10.53;100.00
12247;BME280;6186;52.022;4.692;2023-02-19T05:05:00;102146.31;;;10.54;100.00
12247;BME280;6186;52.022;4.692;2023-02-19T05:07:26;102147.25;;;10.52;100.00
12247;BME280;6186;52.022;4.692;2023-02-19T05:09:51;102147.25;;;10.50;100.00
12247;BME280;6186;52.022;4.692;2023-02-19T05:12:16;102159.53;;;10.51;100.00
12247;BME280;6186;52.022;4.692;2023-02-19T05:14:42;102161.28;;;10.49;100.00
12247;BME280;6186;52.022;4.692;2023-02-19T05:17:07;102173.56;;;10.47;100.00
12247;BME280;6186;52.022;4.692;2023-02-19T05:19:32;102163.06;;;10.44;100.00
12247;BME280;6186;52.022;4.692;2023-02-19T05:21:58;102179.75;;;10.41;100.00
12247;BME280;6186;52.022;4.692;2023-02-19T05:24:23;102178.88;;;10.38;100.00
12247;BME280;6186;52.022;4.692;2023-02-19T05:26:49;102179.75;;;10.40;100.00
12247;BME280;6186;52.022;4.692;2023-02-19T05:29:15;102181.50;;;10.39;100.00
12247;BME280;6186;52.022;4.692;2023-02-19T05:31:40;102173.63;;;10.36;100.00
12247;BME280;6186;52.022;4.692;2023-02-19T05:34:06;102179.78;;;10.37;100.00
12247;BME280;6186;52.022;4.692;2023-02-19T05:36:31;102173.63;;;10.36;100.00
12247;BME280;6186;52.022;4.692;2023-02-19T05:38:57;102174.50;;;10.31;100.00
12247;BME280;6186;52.022;4.692;2023-02-19T05:41:28;102177.16;;;10.31;100.00
12247;BME280;6186;52.022;4.692;2023-02-19T05:43:55;102174.50;;;10.31;100.00
12247;BME280;6186;52.022;4.692;2023-02-19T05:46:23;102167.53;;;10.25;100.00
12247;BME280;6186;52.022;4.692;2023-02-19T05:48:50;102180.66;;;10.30;100.00
12247;BME280;6186;52.022;4.692;2023-02-19T05:51:17;102169.25;;;10.29;100.00
12247;BME280;6186;52.022;4.692;2023-02-19T05:53:43;102185.91;;;10.28;100.00
12247;BME280;6186;52.022;4.692;2023-02-19T05:58:43;102187.69;;;10.31;100.00
12247;BME280;6186;52.022;4.692;2023-02-19T06:01:16;102186.78;;;10.32;100.00
12247;BME280;6186;52.022;4.692;2023-02-19T06:03:42;102188.56;;;10.33;100.00
12247;BME280;6186;52.022;4.692;2023-02-19T06:06:10;102180.66;;;10.33;100.00
12247;BME280;6186;52.022;4.692;2023-02-19T06:08:37;102208.72;;;10.34;100.00
12247;BME280;6186;52.022;4.692;2023-02-19T06:11:02;102195.56;;;10.28;100.00
12247;BME280;6186;52.022;4.692;2023-02-19T06:13:27;102216.59;;;10.35;100.00
12247;BME280;6186;52.022;4.692;2023-02-19T06:15:53;102212.22;;;10.34;100.00
12247;BME280;6186;52.022;4.692;2023-02-19T06:18:18;102217.50;;;10.33;100.00
12247;BME280;6186;52.022;4.692;2023-02-19T06:20:43;102208.72;;;10.31;100.00
12247;BME280;6186;52.022;4.692;2023-02-19T06:23:09;102221.88;;;10.31;100.00
12247;BME280;6186;52.022;4.692;2023-02-19T06:25:34;102220.16;;;10.25;100.00
12247;BME280;6186;52.022;4.692;2023-02-19T06:27:59;102224.50;;;10.28;100.00
12247;BME280;6186;52.022;4.692;2023-02-19T06:30:25;102228.03;;;10.25;100.00
12247;BME280;6186;52.022;4.692;2023-02-19T06:32:51;102236.81;;;10.24;100.00
12247;BME280;6186;52.022;4.692;2023-02-19T06:35:17;102234.19;;;10.23;100.00
12247;BME280;6186;52.022;4.692;2023-02-19T06:37:45;102235.91;;;10.24;100.00
12247;BME280;6186;52.022;4.692;2023-02-19T06:40:10;102230.66;;;10.24;100.00
12247;BME280;6186;52.022;4.692;2023-02-19T06:42:36;102245.59;;;10.23;100.00
12247;BME280;6186;52.022;4.692;2023-02-19T06:45:01;102244.69;;;10.23;100.00
12247;BME280;6186;52.022;4.692;2023-02-19T06:47:30;102244.69;;;10.23;100.00
12247;BME280;6186;52.022;4.692;2023-02-19T06:49:56;102251.72;;;10.21;100.00
12247;BME280;6186;52.022;4.692;2023-02-19T06:52:21;102251.72;;;10.21;100.00
12247;BME280;6186;52.022;4.692;2023-02-19T06:54:46;102251.72;;;10.19;100.00
12247;BME280;6186;52.022;4.692;2023-02-19T06:57:12;102255.25;;;10.20;100.00
12247;BME280;6186;52.022;4.692;2023-02-19T06:59:37;102251.75;;;10.18;100.00
12247;BME280;6186;52.022;4.692;2023-02-19T07:02:02;102257.88;;;10.15;100.00
12247;BME280;6186;52.022;4.692;2023-02-19T07:04:28;102265.78;;;10.14;100.00
12247;BME280;6186;52.022;4.692;2023-02-19T07:06:53;102270.16;;;10.12;100.00
12247;BME280;6186;52.022;4.692;2023-02-19T07:09:18;102278.06;;;10.12;100.00
12247;BME280;6186;52.022;4.692;2023-02-19T07:11:44;102277.16;;;10.08;100.00
12247;BME280;6186;52.022;4.692;2023-02-19T07:14:15;102277.16;;;10.08;100.00
12247;BME280;6186;52.022;4.692;2023-02-19T07:16:41;102278.88;;;10.03;100.00
12247;BME280;6186;52.022;4.692;2023-02-19T07:19:08;102302.59;;;10.11;100.00
12247;BME280;6186;52.022;4.692;2023-02-19T07:21:33;102307.84;;;10.09;100.00
12247;BME280;6186;52.022;4.692;2023-02-19T07:24:02;102314.81;;;10.09;100.00
12247;BME280;6186;52.022;4.692;2023-02-19T07:26:29;102321.00;;;10.09;100.00
12247;BME280;6186;52.022;4.692;2023-02-19T07:28:54;102327.16;;;10.10;100.00
12247;BME280;6186;52.022;4.692;2023-02-19T07:31:21;102330.63;;;10.09;100.00
12247;BME280;6186;52.022;4.692;2023-02-19T07:33:47;102335.88;;;10.06;100.00
12247;BME280;6186;52.022;4.692;2023-02-19T07:36:14;102336.78;;;10.05;100.00
12247;BME280;6186;52.022;4.692;2023-02-19T07:38:41;102337.63;;;10.04;100.00
12247;BME280;6186;52.022;4.692;2023-02-19T07:41:06;102353.44;;;10.04;100.00
12247;BME280;6186;52.022;4.692;2023-02-19T07:43:33;102351.69;;;10.04;100.00
12247;BME280;6186;52.022;4.692;2023-02-19T07:46:04;102351.66;;;10.01;100.00
12247;BME280;6186;52.022;4.692;2023-02-19T07:48:29;102363.09;;;10.05;100.00
12247;BME280;6186;52.022;4.692;2023-02-19T07:50:57;102365.72;;;10.06;100.00
12247;BME280;6186;52.022;4.692;2023-02-19T07:53:23;102370.09;;;10.06;100.00
12247;BME280;6186;52.022;4.692;2023-02-19T07:55:49;102370.09;;;10.06;100.00
12247;BME280;6186;52.022;4.692;2023-02-19T07:58:15;102374.47;;;10.07;100.00
12247;BME280;6186;52.022;4.692;2023-02-19T08:00:40;102371.81;;;10.07;100.00
12247;BME280;6186;52.022;4.692;2023-02-19T08:03:06;102383.25;;;10.06;100.00
12247;BME280;6186;52.022;4.692;2023-02-19T08:05:41;102385.00;;;10.05;100.00
12247;BME280;6186;52.022;4.692;2023-02-19T08:08:08;102388.50;;;10.03;100.00
12247;BME280;6186;52.022;4.692;2023-02-19T08:10:34;102392.00;;;10.02;100.00
12247;BME280;6186;52.022;4.692;2023-02-19T08:13:18;102392.00;;;10.02;100.00
12247;BME280;6186;52.022;4.692;2023-02-19T08:16:10;102392.88;;;9.98;100.00
12247;BME280;6186;52.022;4.692;2023-02-19T08:18:36;102396.38;;;10.00;100.00
12247;BME280;6186;52.022;4.692;2023-02-19T08:21:01;102392.88;;;9.99;100.00
12247;BME280;6186;52.022;4.692;2023-02-19T08:23:27;102396.38;;;10.01;100.00
12247;BME280;6186;52.022;4.692;2023-02-19T08:25:56;102401.66;;;10.03;100.00
12247;BME280;6186;52.022;4.692;2023-02-19T08:28:21;102400.78;;;10.04;100.00
12247;BME280;6186;52.022;4.692;2023-02-19T08:30:47;102402.56;;;10.05;100.00
12247;BME280;6186;52.022;4.692;2023-02-19T08:33:15;102408.66;;;10.05;100.00
12247;BME280;6186;52.022;4.692;2023-02-19T08:35:41;102404.31;;;10.03;100.00
12247;BME280;6186;52.022;4.692;2023-02-19T08:38:08;102417.47;;;10.03;100.00
12247;BME280;6186;52.022;4.692;2023-02-19T08:40:36;102434.13;;;10.05;100.00
12247;BME280;6186;52.022;4.692;2023-02-19T08:43:07;102430.59;;;10.03;100.00
12247;BME280;6186;52.022;4.692;2023-02-19T08:45:33;102428.84;;;10.03;100.00
12247;BME280;6186;52.022;4.692;2023-02-19T08:47:59;102425.34;;;10.04;100.00
12247;BME280;6186;52.022;4.692;2023-02-19T08:50:25;102422.72;;;10.06;100.00
12247;BME280;6186;52.022;4.692;2023-02-19T08:52:51;102419.19;;;10.07;100.00
12247;BME280;6186;52.022;4.692;2023-02-19T08:55:16;102413.09;;;10.11;100.00
12247;BME280;6186;52.022;4.692;2023-02-19T08:57:43;102422.75;;;10.13;100.00
12247;BME280;6186;52.022;4.692;2023-02-19T09:00:09;102413.13;;;10.17;100.00
12247;BME280;6186;52.022;4.692;2023-02-19T09:02:35;102408.72;;;10.19;100.00
12247;BME280;6186;52.022;4.692;2023-02-19T09:05:01;102425.41;;;10.30;100.00
12247;BME280;6186;52.022;4.692;2023-02-19T09:07:27;102421.91;;;10.31;100.00
12247;BME280;6186;52.022;4.692;2023-02-19T09:09:52;102426.28;;;10.30;100.00
12247;BME280;6186;52.022;4.692;2023-02-19T09:12:17;102433.31;;;10.30;100.00
12247;BME280;6186;52.022;4.692;2023-02-19T09:14:43;102436.81;;;10.29;100.00
12247;BME280;6186;52.022;4.692;2023-02-19T09:17:08;102427.16;;;10.22;100.00
12247;BME280;6186;52.022;4.692;2023-02-19T09:19:34;102441.22;;;10.27;100.00
12247;BME280;6186;52.022;4.692;2023-02-19T09:22:00;102450.84;;;10.25;100.00
12247;BME280;6186;52.022;4.692;2023-02-19T09:24:26;102436.81;;;10.21;100.00
12247;BME280;6186;52.022;4.692;2023-02-19T09:26:52;102462.25;;;10.24;100.00
12247;BME280;6186;52.022;4.692;2023-02-19T09:29:19;102467.50;;;10.24;100.00
12247;BME280;6186;52.022;4.692;2023-02-19T09:31:45;102476.28;;;10.23;100.00
12247;BME280;6186;52.022;4.692;2023-02-19T09:34:10;102481.56;;;10.24;100.00
12247;BME280;6186;52.022;4.692;2023-02-19T09:36:37;102486.84;;;10.30;100.00
12247;BME280;6186;52.022;4.692;2023-02-19T09:39:03;102489.47;;;10.36;100.00
12247;BME280;6186;52.022;4.692;2023-02-19T09:41:34;102500.03;;;10.49;100.00
12247;BME280;6186;52.022;4.692;2023-02-19T09:44:02;102489.53;;;10.68;100.00
12247;BME280;6186;52.022;4.692;2023-02-19T09:46:35;102493.91;;;11.14;100.00
12247;BME280;6186;52.022;4.692;2023-02-19T09:49:20;102499.97;;;11.69;100.00
12247;BME280;6186;52.022;4.692;2023-02-19T09:51:51;102520.88;;;12.19;100.00
12247;BME280;6186;52.022;4.692;2023-02-19T09:54:25;102510.91;;;12.63;100.00
12247;BME280;6186;52.022;4.692;2023-02-19T09:56:52;102512.47;;;12.91;100.00
12247;BME280;6186;52.022;4.692;2023-02-19T09:59:42;102497.56;;;12.80;100.00
12247;BME280;6186;52.022;4.692;2023-02-19T10:02:17;102537.28;;;12.72;100.00
12247;BME280;6186;52.022;4.692;2023-02-19T10:04:44;102531.31;;;12.43;100.00
12247;BME280;6186;52.022;4.692;2023-02-19T10:07:12;102538.47;;;12.20;100.00
12247;BME280;6186;52.022;4.692;2023-02-19T10:09:38;102540.31;;;12.00;100.00
12247;BME280;6186;52.022;4.692;2023-02-19T10:12:14;102525.47;;;11.75;100.00
12247;BME280;6186;52.022;4.692;2023-02-19T10:14:46;102549.22;;;11.60;100.00
12247;BME280;6186;52.022;4.692;2023-02-19T10:17:25;102552.75;;;11.34;100.00
12247;BME280;6186;52.022;4.692;2023-02-19T10:19:51;102538.72;;;11.17;100.00
12247;BME280;6186;52.022;4.692;2023-02-19T10:22:18;102542.22;;;11.04;100.00
12247;BME280;6186;52.022;4.692;2023-02-19T10:24:44;102551.00;;;10.90;100.00
12247;BME280;6186;52.022;4.692;2023-02-19T10:27:13;102558.00;;;10.83;100.00
12247;BME280;6186;52.022;4.692;2023-02-19T10:29:42;102573.81;;;10.79;100.00
12247;BME280;6186;52.022;4.692;2023-02-19T10:32:27;102574.69;;;10.78;100.00
12247;BME280;6186;52.022;4.692;2023-02-19T10:35:07;102573.81;;;10.79;100.00
12247;BME280;6186;52.022;4.692;2023-02-19T10:37:33;102581.72;;;10.80;100.00
12247;BME280;6186;52.022;4.692;2023-02-19T10:39:59;102586.09;;;10.81;100.00
12247;BME280;6186;52.022;4.692;2023-02-19T10:42:25;102584.38;;;10.83;100.00
12247;BME280;6186;52.022;4.692;2023-02-19T10:44:55;102582.59;;;10.81;100.00
12247;BME280;6186;52.022;4.692;2023-02-19T10:47:25;102572.94;;;10.69;100.00
12247;BME280;6186;52.022;4.692;2023-02-19T10:49:52;102593.13;;;10.75;100.00
12247;BME280;6186;52.022;4.692;2023-02-19T10:54:51;102588.72;;;10.68;100.00
12247;BME280;6186;52.022;4.692;2023-02-19T11:02:16;102579.06;;;10.77;100.00
12247;BME280;6186;52.022;4.692;2023-02-19T11:07:56;102582.59;;;10.88;100.00
12247;BME280;6186;52.022;4.692;2023-02-19T11:10:35;102572.97;;;11.11;100.00
12247;BME280;6186;52.022;4.692;2023-02-19T11:13:04;102582.63;;;11.29;100.00
12247;BME280;6186;52.022;4.692;2023-02-19T11:15:34;102572.97;;;11.40;100.00
12247;BME280;6186;52.022;4.692;2023-02-19T11:18:20;102575.56;;;11.51;100.00
12247;BME280;6186;52.022;4.692;2023-02-19T11:20:49;102581.72;;;11.45;100.00
12247;BME280;6186;52.022;4.692;2023-02-19T11:23:18;102577.34;;;11.39;100.00
12247;BME280;6186;52.022;4.692;2023-02-19T11:25:51;102579.13;;;11.34;100.00
12247;BME280;6186;52.022;4.692;2023-02-19T11:30:49;102573.84;;;11.10;100.00
12247;BME280;6186;52.022;4.692;2023-02-19T11:35:40;102583.50;;;10.98;100.00
12247;BME280;6186;52.022;4.692;2023-02-19T11:38:09;102588.75;;;10.90;100.00
12247;BME280;6186;52.022;4.692;2023-02-19T11:49:20;102579.97;;;10.76;100.00
12247;BME280;6186;52.022;4.692;2023-02-19T12:00:21;102586.09;;;10.75;100.00
12247;BME280;6186;52.022;4.692;2023-02-19T12:17:01;102599.25;;;10.75;100.00
12247;BME280;6186;52.022;4.692;2023-02-19T12:22:26;102598.41;;;10.82;100.00
12247;BME280;6186;52.022;4.692;2023-02-19T12:28:24;102594.06;;;10.92;100.00
12247;BME280;6186;52.022;4.692;2023-02-19T12:36:26;102614.28;;;11.52;100.00
12247;BME280;6186;52.022;4.692;2023-02-19T12:44:10;102621.31;;;11.50;100.00
12247;BME280;6186;52.022;4.692;2023-02-19T12:46:55;102616.91;;;11.39;100.00
12247;BME280;6186;52.022;4.692;2023-02-19T12:49:30;102620.44;;;11.31;100.00
12247;BME280;6186;52.022;4.692;2023-02-19T12:52:13;102616.03;;;11.27;100.00
12247;BME280;6186;52.022;4.692;2023-02-19T12:54:43;102630.97;;;11.25;100.00
12247;BME280;6186;52.022;4.692;2023-02-19T12:57:20;102638.88;;;11.22;100.00
12247;BME280;6186;52.022;4.692;2023-02-19T13:00:03;102645.03;;;11.25;100.00
12247;BME280;6186;52.022;4.692;2023-02-19T13:02:47;102646.78;;;11.22;100.00
12247;BME280;6186;52.022;4.692;2023-02-19T13:05:46;102660.84;;;11.37;100.00
12247;BME280;6186;52.022;4.692;2023-02-19T13:08:30;102674.03;;;11.33;100.00
12247;BME280;6186;52.022;4.692;2023-02-19T13:11:14;102665.25;;;11.23;100.00
12247;BME280;6186;52.022;4.692;2023-02-19T13:13:51;102671.38;;;11.19;100.00
12247;BME280;6186;52.022;4.692;2023-02-19T13:16:20;102676.63;;;11.13;100.00
12247;BME280;6186;52.022;4.692;2023-02-19T13:18:49;102668.72;;;11.07;100.00
12247;BME280;6186;52.022;4.692;2023-02-19T13:21:19;102669.59;;;11.03;100.00
12247;BME280;6186;52.022;4.692;2023-02-19T13:24:12;102676.59;;;11.00;100.00
12247;BME280;6186;52.022;4.692;2023-02-19T13:35:19;102687.16;;;10.95;100.00
12247;BME280;6186;52.022;4.692;2023-02-19T13:37:46;102692.41;;;10.92;100.00
12247;BME280;6186;52.022;4.692;2023-02-19T13:40:32;102713.47;;;10.92;100.00
12247;BME280;6186;52.022;4.692;2023-02-19T13:43:04;102717.00;;;10.91;100.00
12247;BME280;6186;52.022;4.692;2023-02-19T13:45:35;102702.06;;;10.87;100.00
12247;BME280;6186;52.022;4.692;2023-02-19T13:48:23;102705.53;;;10.85;100.00
12247;BME280;6186;52.022;4.692;2023-02-19T13:50:50;102711.69;;;10.85;100.00
12247;BME280;6186;52.022;4.692;2023-02-19T13:59:51;102720.47;;;10.78;100.00
12247;BME280;6186;52.022;4.692;2023-02-19T14:04:53;102721.34;;;10.80;100.00
12247;BME280;6186;52.022;4.692;2023-02-19T14:09:45;102738.00;;;10.81;100.00
12247;BME280;6186;52.022;4.692;2023-02-19T14:14:38;102734.50;;;10.74;100.00
12247;BME280;6186;52.022;4.692;2023-02-19T14:19:55;102736.25;;;10.72;100.00
12247;BME280;6186;52.022;4.692;2023-02-19T14:27:49;102713.34;;;10.59;100.00
12247;BME280;6186;52.022;4.692;2023-02-19T14:30:16;102709.81;;;10.57;100.00
12247;BME280;6186;52.022;4.692;2023-02-19T14:32:42;102714.22;;;10.55;100.00
12247;BME280;6186;52.022;4.692;2023-02-19T14:35:22;102715.09;;;10.56;100.00
12247;BME280;6186;52.022;4.692;2023-02-19T14:37:50;102718.59;;;10.50;100.00
12247;BME280;6186;52.022;4.692;2023-02-19T14:40:47;102722.91;;;10.47;100.00
12247;BME280;6186;52.022;4.692;2023-02-19T14:43:17;102715.03;;;10.43;100.00
12247;BME280;6186;52.022;4.692;2023-02-19T14:45:48;102711.53;;;10.46;100.00
12247;BME280;6186;52.022;4.692;2023-02-19T14:48:31;102730.00;;;10.54;100.00
12247;BME280;6186;52.022;4.692;2023-02-19T14:51:03;102715.03;;;10.45;100.00
12247;BME280;6186;52.022;4.692;2023-02-19T14:53:36;102716.81;;;10.48;100.00
12247;BME280;6186;52.022;4.692;2023-02-19T14:56:03;102713.28;;;10.47;100.00
12247;BME280;6186;52.022;4.692;2023-02-19T14:58:31;102704.53;;;10.48;100.00
12247;BME280;6186;52.022;4.692;2023-02-19T15:00:58;102708.91;;;10.48;100.00
12247;BME280;6186;52.022;4.692;2023-02-19T15:03:31;102706.28;;;10.46;100.00